createdAt,value
2023-05-09T00:00:24.982Z,99833.09
2023-05-09T00:05:26.717Z,99836.35
2023-05-09T00:10:28.732Z,99837.19
2023-05-09T00:15:30.568Z,99835.35
2023-05-09T00:20:34.088Z,99829.20
2023-05-09T00:25:36.055Z,99826.72
2023-05-09T00:30:37.752Z,99830.98
2023-05-09T00:35:40.336Z,99827.61
2023-05-09T00:40:41.985Z,99818.78
2023-05-09T00:45:45.907Z,99814.45
2023-05-09T00:50:52.814Z,99810.73
2023-05-09T00:55:56.821Z,99805.66
2023-05-09T01:00:59.238Z,99804.52
2023-05-09T01:06:11.642Z,99801.19
2023-05-09T01:11:23.099Z,99800.31
2023-05-09T01:16:51.382Z,99792.14
2023-05-09T01:21:56.486Z,99787.54
2023-05-09T01:27:33.793Z,99790.18
2023-05-09T01:32:39.173Z,99789.67
2023-05-09T01:37:42.965Z,99784.14
2023-05-09T01:42:55.580Z,99783.30
2023-05-09T01:47:58.616Z,99784.61
2023-05-09T01:53:06.629Z,99779.23
2023-05-09T01:58:09.713Z,99775.71
2023-05-09T02:03:11.863Z,99776.39
2023-05-09T02:08:18.927Z,99773.02
2023-05-09T02:13:20.688Z,99770.41
2023-05-09T02:18:22.858Z,99773.91
2023-05-09T02:23:24.560Z,99768.27
2023-05-09T02:28:28.320Z,99763.11
2023-05-09T02:33:31.475Z,99762.05
2023-05-09T02:38:34.678Z,99754.73
2023-05-09T02:43:37.324Z,99754.14
2023-05-09T02:48:39.238Z,99756.29
2023-05-09T02:53:41.012Z,99756.91
2023-05-09T02:58:42.780Z,99761.09
2023-05-09T03:03:44.776Z,99757.38
2023-05-09T03:08:47.816Z,99755.70
2023-05-09T03:13:50.221Z,99754.56
2023-05-09T03:18:52.312Z,99751.48
2023-05-09T03:23:54.106Z,99751.48
2023-05-09T03:28:55.997Z,99755.75
2023-05-09T03:33:58.112Z,99750.86
2023-05-09T03:39:00.776Z,99761.95
2023-05-09T03:44:04.868Z,99760.90
2023-05-09T03:49:07.298Z,99763.45
2023-05-09T03:54:09.597Z,99764.77
2023-05-09T03:59:11.687Z,99766.02
2023-05-09T04:04:13.804Z,99763.71
2023-05-09T04:09:15.990Z,99761.83
2023-05-09T04:14:18.091Z,99765.41
2023-05-09T04:19:20.829Z,99768.36
2023-05-09T04:24:22.992Z,99760.01
2023-05-09T04:29:25.075Z,99752.85
2023-05-09T04:34:29.867Z,99741.28
2023-05-09T04:39:33.350Z,99733.55
2023-05-09T04:44:41.179Z,99734.16
2023-05-09T04:49:43.561Z,99733.34
2023-05-09T04:54:45.243Z,99737.20
2023-05-09T04:59:47.568Z,99738.25
2023-05-09T05:04:49.594Z,99734.63
2023-05-09T05:09:52.144Z,99731.95
2023-05-09T05:14:53.866Z,99731.72
2023-05-09T05:19:56.648Z,99729.66
2023-05-09T05:24:58.593Z,99729.58
2023-05-09T05:30:00.772Z,99729.73
2023-05-09T05:35:04.883Z,99726.12
2023-05-09T05:40:13.436Z,99724.68
2023-05-09T05:45:17.831Z,99713.34
2023-05-09T05:50:22.892Z,99709.00
2023-05-09T05:55:24.797Z,99705.81
2023-05-09T06:00:27.444Z,99706.23
2023-05-09T06:05:44.407Z,99705.64
2023-05-09T06:10:46.334Z,99707.79
2023-05-09T06:15:48.217Z,99708.73
2023-05-09T06:20:50.689Z,99699.88
2023-05-09T06:25:52.362Z,99692.45
2023-05-09T06:30:54.027Z,99682.83
2023-05-09T06:35:55.761Z,99677.45
2023-05-09T06:40:57.524Z,99680.66
2023-05-09T06:45:59.327Z,99676.96
2023-05-09T06:51:01.144Z,99675.07
2023-05-09T06:56:03.009Z,99668.41
2023-05-09T07:01:05.033Z,99666.98
2023-05-09T07:06:07.062Z,99658.80
2023-05-09T07:11:08.958Z,99663.23
2023-05-09T07:16:10.740Z,99650.90
2023-05-09T07:21:12.443Z,99649.33
2023-05-09T07:26:14.161Z,99634.02
2023-05-09T07:31:15.898Z,99635.36
2023-05-09T07:36:17.640Z,99635.79
2023-05-09T07:41:19.469Z,99631.77
2023-05-09T07:46:21.283Z,99625.96
2023-05-09T07:51:23.077Z,99619.27
2023-05-09T07:56:26.453Z,99612.62
2023-05-09T08:01:28.383Z,99614.18
2023-05-09T08:06:30.265Z,99613.23
2023-05-09T08:11:36.006Z,99611.33
2023-05-09T08:16:37.804Z,99598.01
2023-05-09T08:21:39.667Z,99599.48
2023-05-09T08:26:41.370Z,99594.10
2023-05-09T08:31:43.537Z,99594.54
2023-05-09T08:36:47.065Z,99589.99
2023-05-09T08:41:48.875Z,99585.15
2023-05-09T08:46:55.722Z,99582.59
2023-05-09T08:51:57.955Z,99578.30
2023-05-09T08:57:01.539Z,99574.70
2023-05-09T09:02:07.219Z,99573.82
2023-05-09T09:07:09.996Z,99575.39
2023-05-09T09:12:12.823Z,99578.66
2023-05-09T09:17:19.606Z,99585.02
2023-05-09T09:22:22.554Z,99584.54
2023-05-09T09:27:24.352Z,99578.88
2023-05-09T09:32:34.239Z,99574.60
2023-05-09T09:37:40.086Z,99568.56
2023-05-09T09:42:49.197Z,99563.58
2023-05-09T09:47:51.196Z,99560.65
2023-05-09T09:52:57.919Z,99557.36
2023-05-09T09:58:03.521Z,99555.13
2023-05-09T10:03:05.589Z,99551.02
2023-05-09T10:08:10.768Z,99544.66
2023-05-09T10:13:12.944Z,99540.69
2023-05-09T10:18:19.741Z,99537.90
2023-05-09T10:23:24.146Z,99539.64
2023-05-09T10:28:32.134Z,99534.16
2023-05-09T10:33:50.121Z,99527.58
2023-05-09T10:38:56.189Z,99524.66
2023-05-09T10:43:58.712Z,99516.21
2023-05-09T10:49:01.631Z,99520.54
2023-05-09T10:54:15.614Z,99505.88
2023-05-09T10:59:38.479Z,99501.18
2023-05-09T11:04:41.118Z,99488.03
2023-05-09T11:09:43.014Z,99491.43
2023-05-09T11:14:49.983Z,99495.22
2023-05-09T11:19:51.928Z,99489.17
2023-05-09T11:25:02.645Z,99480.46
2023-05-09T11:30:07.026Z,99472.91
2023-05-09T11:35:10.266Z,99466.48
2023-05-09T11:40:14.176Z,99461.68
2023-05-09T11:45:17.677Z,99453.45
2023-05-09T11:50:20.668Z,99448.52
2023-05-09T11:55:23.236Z,99442.75
2023-05-09T12:00:26.521Z,99436.64
2023-05-09T12:05:28.441Z,99430.15
2023-05-09T12:10:30.265Z,99422.23
2023-05-09T12:15:38.833Z,99414.41
2023-05-09T12:20:46.951Z,99403.27
2023-05-09T12:25:56.313Z,99401.22
2023-05-09T12:30:58.939Z,99390.23
2023-05-09T12:36:04.855Z,99388.73
2023-05-09T12:41:15.508Z,99373.31
2023-05-09T12:46:24.400Z,99370.83
2023-05-09T12:51:26.285Z,99369.40
2023-05-09T12:56:33.424Z,99355.73
2023-05-09T13:01:35.923Z,99347.52
2023-05-09T13:06:47.694Z,99351.14
2023-05-09T13:11:51.203Z,99342.05
2023-05-09T13:16:54.053Z,99339.30
2023-05-09T13:21:56.054Z,99334.25
2023-05-09T13:26:57.962Z,99326.67
2023-05-09T13:31:59.984Z,99321.89
2023-05-09T13:37:02.027Z,99312.25
2023-05-09T13:42:04.058Z,99309.11
2023-05-09T13:47:07.880Z,99309.92
2023-05-09T13:52:09.733Z,99299.13
2023-05-09T13:57:11.796Z,99291.90
2023-05-09T14:02:13.490Z,99286.56
2023-05-09T14:07:16.762Z,99287.41
2023-05-09T14:12:21.464Z,99274.17
2023-05-09T14:17:23.237Z,99269.72
2023-05-09T14:22:25.011Z,99264.00
2023-05-09T14:27:27.479Z,99257.11
2023-05-09T14:32:29.332Z,99257.02
2023-05-09T14:37:32.030Z,99236.31
2023-05-09T14:42:33.814Z,99251.22
2023-05-09T14:47:35.855Z,99244.89
2023-05-09T14:52:37.521Z,99244.07
2023-05-09T14:57:39.482Z,99236.48
2023-05-09T15:02:42.095Z,99230.55
2023-05-09T15:07:43.901Z,99224.17
2023-05-09T15:12:45.586Z,99214.65
2023-05-09T15:17:47.562Z,99213.06
2023-05-09T15:22:50.901Z,99199.12
2023-05-09T15:27:52.783Z,99196.56
2023-05-09T15:32:54.695Z,99190.23
2023-05-09T15:37:56.397Z,99186.86
2023-05-09T15:42:59.708Z,99188.61
2023-05-09T15:48:13.402Z,99186.38
2023-05-09T15:53:16.220Z,99181.70
2023-05-09T15:58:18.392Z,99178.80
2023-05-09T16:03:20.225Z,99172.13
2023-05-09T16:08:22.104Z,99159.89
2023-05-09T16:13:23.938Z,99152.48
2023-05-09T16:18:25.805Z,99154.91
2023-05-09T16:23:27.460Z,99150.57
2023-05-09T16:28:30.198Z,99145.81
2023-05-09T16:33:32.602Z,99147.67
2023-05-09T16:38:34.299Z,99143.23
2023-05-09T16:43:36.026Z,99137.52
2023-05-09T16:48:37.887Z,99128.47
2023-05-09T16:53:39.622Z,99127.23
2023-05-09T16:58:43.172Z,99121.54
2023-05-09T17:03:45.357Z,99116.42
2023-05-09T17:08:47.393Z,99114.05
2023-05-09T17:13:49.155Z,99112.14
2023-05-09T17:18:52.037Z,99108.89
2023-05-09T17:23:54.011Z,99102.64
2023-05-09T17:28:55.754Z,99099.34
2023-05-09T17:33:57.667Z,99101.23
2023-05-09T17:38:59.337Z,99102.29
2023-05-09T17:44:01.097Z,99105.02
2023-05-09T17:49:03.282Z,99104.07
2023-05-09T17:54:05.725Z,99104.27
2023-05-09T17:59:07.931Z,99105.17
2023-05-09T18:04:09.644Z,99101.84
2023-05-09T18:09:11.364Z,99101.69
2023-05-09T18:14:13.132Z,99102.52
2023-05-09T18:19:14.861Z,99096.25
2023-05-09T18:24:17.102Z,99095.30
2023-05-09T18:29:19.619Z,99092.95
2023-05-09T18:34:22.062Z,99096.26
2023-05-09T18:39:23.890Z,99102.80
2023-05-09T18:44:25.574Z,99103.81
2023-05-09T18:49:27.241Z,99101.75
2023-05-09T18:54:29.064Z,99104.46
2023-05-09T18:59:30.737Z,99108.36
2023-05-09T19:04:34.087Z,99107.80
2023-05-09T19:09:35.891Z,99104.52
2023-05-09T19:14:38.119Z,99102.58
2023-05-09T19:19:39.890Z,99099.79
2023-05-09T19:24:42.507Z,99101.61
2023-05-09T19:29:44.155Z,99097.64
2023-05-09T19:34:46.097Z,99094.85
2023-05-09T19:39:47.783Z,99091.06
2023-05-09T19:44:52.382Z,99086.42
2023-05-09T19:49:54.047Z,99088.13
2023-05-09T19:54:55.941Z,99087.45
2023-05-09T19:59:58.310Z,99090.20
2023-05-09T20:05:00.595Z,99087.63
2023-05-09T20:10:02.329Z,99087.42
2023-05-09T20:15:06.697Z,99087.59
2023-05-09T20:20:10.247Z,99083.46
2023-05-09T20:25:13.396Z,99082.27
2023-05-09T20:30:17.418Z,99080.02
2023-05-09T20:35:19.715Z,99081.73
2023-05-09T20:40:21.356Z,99084.60
2023-05-09T20:45:23.129Z,99078.98
2023-05-09T20:50:25.138Z,99082.55
2023-05-09T20:55:27.259Z,99084.23
2023-05-09T21:00:29.028Z,99085.23
2023-05-09T21:05:30.713Z,99077.33
2023-05-09T21:10:36.491Z,99075.58
2023-05-09T21:15:39.623Z,99078.57
2023-05-09T21:20:41.504Z,99078.84
2023-05-09T21:25:43.247Z,99076.23
2023-05-09T21:30:51.283Z,99074.63
2023-05-09T21:35:53.373Z,99073.38
2023-05-09T21:40:56.383Z,99073.14
2023-05-09T21:45:58.203Z,99072.19
2023-05-09T21:51:02.658Z,99068.86
2023-05-09T21:56:04.772Z,99069.11
2023-05-09T22:01:06.496Z,99068.17
2023-05-09T22:06:08.169Z,99071.09
2023-05-09T22:11:10.206Z,99068.57
2023-05-09T22:16:13.296Z,99065.89
2023-05-09T22:21:15.206Z,99065.89
2023-05-09T22:26:16.974Z,99064.00
2023-05-09T22:31:18.909Z,99060.40
2023-05-09T22:36:21.797Z,99061.40
2023-05-09T22:41:23.477Z,99058.45
2023-05-09T22:46:25.417Z,99055.81
2023-05-09T22:51:27.838Z,99054.89
2023-05-09T22:56:29.567Z,99058.02
2023-05-09T23:01:31.611Z,99056.21
2023-05-09T23:06:33.851Z,99052.73
2023-05-09T23:11:38.242Z,99048.14
2023-05-09T23:16:41.085Z,99046.21
2023-05-09T23:21:42.740Z,99042.29
2023-05-09T23:26:45.027Z,99037.82
2023-05-09T23:31:47.066Z,99037.60
2023-05-09T23:36:49.012Z,99034.86
2023-05-09T23:41:51.232Z,99031.14
2023-05-09T23:46:54.019Z,99035.48
2023-05-09T23:51:57.330Z,99034.51
2023-05-09T23:56:59.083Z,99029.83
